sensor_id;sensor_type;location;lat;lon;timestamp;P1;durP1;ratioP1;P2;durP2;ratioP2
21192;SDS011;10754;51.106;7.164;2022-12-22T00:02:30;0.60;;;0.50;;
21192;SDS011;10754;51.106;7.164;2022-12-22T00:05:15;0.60;;;0.40;;
21192;SDS011;10754;51.106;7.164;2022-12-22T00:08:06;0.80;;;0.50;;
21192;SDS011;10754;51.106;7.164;2022-12-22T00:10:51;0.47;;;0.47;;
21192;SDS011;10754;51.106;7.164;2022-12-22T00:13:35;0.63;;;0.37;;
21192;SDS011;10754;51.106;7.164;2022-12-22T00:16:20;0.77;;;0.70;;
21192;SDS011;10754;51.106;7.164;2022-12-22T00:19:10;0.60;;;0.50;;
21192;SDS011;10754;51.106;7.164;2022-12-22T00:22:17;0.73;;;0.60;;
21192;SDS011;10754;51.106;7.164;2022-12-22T00:25:03;0.60;;;0.60;;
21192;SDS011;10754;51.106;7.164;2022-12-22T00:27:48;0.47;;;0.47;;
21192;SDS011;10754;51.106;7.164;2022-12-22T00:30:32;0.60;;;0.60;;
21192;SDS011;10754;51.106;7.164;2022-12-22T00:33:17;0.70;;;0.50;;
21192;SDS011;10754;51.106;7.164;2022-12-22T00:36:02;0.57;;;0.40;;
21192;SDS011;10754;51.106;7.164;2022-12-22T00:38:48;1.57;;;0.73;;
21192;SDS011;10754;51.106;7.164;2022-12-22T00:41:32;0.50;;;0.50;;
21192;SDS011;10754;51.106;7.164;2022-12-22T00:44:16;2.60;;;0.50;;
21192;SDS011;10754;51.106;7.164;2022-12-22T00:47:00;1.47;;;0.60;;
21192;SDS011;10754;51.106;7.164;2022-12-22T00:49:45;0.50;;;0.50;;
21192;SDS011;10754;51.106;7.164;2022-12-22T00:52:31;0.40;;;0.40;;
21192;SDS011;10754;51.106;7.164;2022-12-22T00:55:17;0.80;;;0.70;;
21192;SDS011;10754;51.106;7.164;2022-12-22T00:58:10;1.07;;;0.60;;
21192;SDS011;10754;51.106;7.164;2022-12-22T01:00:59;0.60;;;0.50;;
21192;SDS011;10754;51.106;7.164;2022-12-22T01:03:43;0.60;;;0.53;;
21192;SDS011;10754;51.106;7.164;2022-12-22T01:06:28;0.90;;;0.60;;
21192;SDS011;10754;51.106;7.164;2022-12-22T01:09:14;0.97;;;0.47;;
21192;SDS011;10754;51.106;7.164;2022-12-22T01:11:59;0.87;;;0.60;;
21192;SDS011;10754;51.106;7.164;2022-12-22T01:14:44;0.70;;;0.50;;
21192;SDS011;10754;51.106;7.164;2022-12-22T01:17:28;1.47;;;0.50;;
21192;SDS011;10754;51.106;7.164;2022-12-22T01:20:12;0.90;;;0.60;;
21192;SDS011;10754;51.106;7.164;2022-12-22T01:22:56;1.77;;;1.07;;
21192;SDS011;10754;51.106;7.164;2022-12-22T01:25:40;1.03;;;0.60;;
21192;SDS011;10754;51.106;7.164;2022-12-22T01:28:24;1.60;;;0.73;;
21192;SDS011;10754;51.106;7.164;2022-12-22T01:31:16;1.17;;;0.93;;
21192;SDS011;10754;51.106;7.164;2022-12-22T01:34:03;0.90;;;0.60;;
21192;SDS011;10754;51.106;7.164;2022-12-22T01:36:47;0.90;;;0.50;;
21192;SDS011;10754;51.106;7.164;2022-12-22T01:39:31;0.80;;;0.60;;
21192;SDS011;10754;51.106;7.164;2022-12-22T01:42:15;0.43;;;0.40;;
21192;SDS011;10754;51.106;7.164;2022-12-22T01:45:01;0.53;;;0.47;;
21192;SDS011;10754;51.106;7.164;2022-12-22T01:47:58;1.67;;;0.70;;
21192;SDS011;10754;51.106;7.164;2022-12-22T01:50:42;2.43;;;0.80;;
21192;SDS011;10754;51.106;7.164;2022-12-22T01:53:26;1.33;;;0.40;;
21192;SDS011;10754;51.106;7.164;2022-12-22T01:56:12;0.50;;;0.50;;
21192;SDS011;10754;51.106;7.164;2022-12-22T01:58:56;2.43;;;0.40;;
21192;SDS011;10754;51.106;7.164;2022-12-22T02:01:43;1.03;;;0.50;;
21192;SDS011;10754;51.106;7.164;2022-12-22T02:04:30;0.43;;;0.33;;
21192;SDS011;10754;51.106;7.164;2022-12-22T02:13:25;0.33;;;0.30;;
21192;SDS011;10754;51.106;7.164;2022-12-22T02:16:15;0.67;;;0.40;;
21192;SDS011;10754;51.106;7.164;2022-12-22T02:22:34;0.30;;;0.30;;
21192;SDS011;10754;51.106;7.164;2022-12-22T02:25:25;0.30;;;0.30;;
21192;SDS011;10754;51.106;7.164;2022-12-22T02:28:16;0.40;;;0.40;;
21192;SDS011;10754;51.106;7.164;2022-12-22T02:31:01;1.30;;;0.40;;
21192;SDS011;10754;51.106;7.164;2022-12-22T02:33:45;0.93;;;0.30;;
21192;SDS011;10754;51.106;7.164;2022-12-22T02:42:49;0.30;;;0.30;;
21192;SDS011;10754;51.106;7.164;2022-12-22T02:48:49;0.20;;;0.20;;
21192;SDS011;10754;51.106;7.164;2022-12-22T02:51:49;0.97;;;0.50;;
21192;SDS011;10754;51.106;7.164;2022-12-22T02:54:40;2.40;;;0.40;;
21192;SDS011;10754;51.106;7.164;2022-12-22T02:57:26;0.30;;;0.30;;
21192;SDS011;10754;51.106;7.164;2022-12-22T03:00:11;0.33;;;0.20;;
21192;SDS011;10754;51.106;7.164;2022-12-22T03:02:56;0.57;;;0.27;;
21192;SDS011;10754;51.106;7.164;2022-12-22T03:05:40;0.43;;;0.43;;
21192;SDS011;10754;51.106;7.164;2022-12-22T03:08:24;0.30;;;0.30;;
21192;SDS011;10754;51.106;7.164;2022-12-22T03:11:08;0.60;;;0.37;;
21192;SDS011;10754;51.106;7.164;2022-12-22T03:13:52;0.43;;;0.20;;
21192;SDS011;10754;51.106;7.164;2022-12-22T03:16:36;0.77;;;0.50;;
21192;SDS011;10754;51.106;7.164;2022-12-22T03:19:20;2.20;;;0.30;;
21192;SDS011;10754;51.106;7.164;2022-12-22T03:22:04;0.30;;;0.30;;
21192;SDS011;10754;51.106;7.164;2022-12-22T03:24:48;2.77;;;0.73;;
21192;SDS011;10754;51.106;7.164;2022-12-22T03:27:32;0.50;;;0.30;;
21192;SDS011;10754;51.106;7.164;2022-12-22T03:29:58;0.60;;;0.30;;
21192;SDS011;10754;51.106;7.164;2022-12-22T03:32:23;0.20;;;0.20;;
21192;SDS011;10754;51.106;7.164;2022-12-22T03:34:48;0.87;;;0.40;;
21192;SDS011;10754;51.106;7.164;2022-12-22T03:37:14;0.20;;;0.20;;
21192;SDS011;10754;51.106;7.164;2022-12-22T03:39:40;0.40;;;0.30;;
21192;SDS011;10754;51.106;7.164;2022-12-22T03:42:06;0.70;;;0.40;;
21192;SDS011;10754;51.106;7.164;2022-12-22T03:44:53;1.77;;;0.40;;
21192;SDS011;10754;51.106;7.164;2022-12-22T03:47:37;0.93;;;0.40;;
21192;SDS011;10754;51.106;7.164;2022-12-22T03:50:02;0.57;;;0.37;;
21192;SDS011;10754;51.106;7.164;2022-12-22T03:52:28;0.73;;;0.40;;
21192;SDS011;10754;51.106;7.164;2022-12-22T03:54:53;0.60;;;0.37;;
21192;SDS011;10754;51.106;7.164;2022-12-22T03:57:19;0.53;;;0.33;;
21192;SDS011;10754;51.106;7.164;2022-12-22T03:59:44;0.67;;;0.40;;
21192;SDS011;10754;51.106;7.164;2022-12-22T04:02:10;0.40;;;0.40;;
21192;SDS011;10754;51.106;7.164;2022-12-22T04:04:35;1.03;;;0.27;;
21192;SDS011;10754;51.106;7.164;2022-12-22T04:07:01;2.13;;;0.30;;
21192;SDS011;10754;51.106;7.164;2022-12-22T04:09:26;2.50;;;0.30;;
21192;SDS011;10754;51.106;7.164;2022-12-22T04:11:53;0.30;;;0.27;;
21192;SDS011;10754;51.106;7.164;2022-12-22T04:14:37;0.67;;;0.30;;
21192;SDS011;10754;51.106;7.164;2022-12-22T04:17:03;1.10;;;0.20;;
21192;SDS011;10754;51.106;7.164;2022-12-22T04:19:30;1.30;;;0.30;;
21192;SDS011;10754;51.106;7.164;2022-12-22T04:21:56;1.33;;;0.30;;
21192;SDS011;10754;51.106;7.164;2022-12-22T04:24:22;0.87;;;0.50;;
21192;SDS011;10754;51.106;7.164;2022-12-22T04:26:48;0.90;;;0.30;;
21192;SDS011;10754;51.106;7.164;2022-12-22T04:29:14;0.50;;;0.20;;
21192;SDS011;10754;51.106;7.164;2022-12-22T04:31:40;0.93;;;0.10;;
21192;SDS011;10754;51.106;7.164;2022-12-22T04:34:05;0.73;;;0.30;;
21192;SDS011;10754;51.106;7.164;2022-12-22T04:36:31;0.67;;;0.20;;
21192;SDS011;10754;51.106;7.164;2022-12-22T04:38:56;0.20;;;0.20;;
21192;SDS011;10754;51.106;7.164;2022-12-22T04:41:22;0.63;;;0.30;;
21192;SDS011;10754;51.106;7.164;2022-12-22T04:43:47;2.00;;;0.30;;
21192;SDS011;10754;51.106;7.164;2022-12-22T04:46:13;0.30;;;0.30;;
21192;SDS011;10754;51.106;7.164;2022-12-22T04:48:38;1.00;;;0.30;;
21192;SDS011;10754;51.106;7.164;2022-12-22T04:51:04;0.67;;;0.33;;
21192;SDS011;10754;51.106;7.164;2022-12-22T04:53:29;0.70;;;0.40;;
21192;SDS011;10754;51.106;7.164;2022-12-22T04:55:57;0.93;;;0.60;;
21192;SDS011;10754;51.106;7.164;2022-12-22T04:58:24;1.50;;;0.57;;
21192;SDS011;10754;51.106;7.164;2022-12-22T05:00:50;0.70;;;0.63;;
21192;SDS011;10754;51.106;7.164;2022-12-22T05:03:15;0.53;;;0.30;;
21192;SDS011;10754;51.106;7.164;2022-12-22T05:05:41;1.40;;;0.60;;
21192;SDS011;10754;51.106;7.164;2022-12-22T05:08:06;0.80;;;0.60;;
21192;SDS011;10754;51.106;7.164;2022-12-22T05:10:32;1.23;;;0.50;;
21192;SDS011;10754;51.106;7.164;2022-12-22T05:12:57;1.43;;;0.63;;
21192;SDS011;10754;51.106;7.164;2022-12-22T05:15:27;3.13;;;0.93;;
21192;SDS011;10754;51.106;7.164;2022-12-22T05:17:54;3.47;;;0.87;;
21192;SDS011;10754;51.106;7.164;2022-12-22T05:20:20;6.40;;;0.80;;
21192;SDS011;10754;51.106;7.164;2022-12-22T05:22:46;8.03;;;1.23;;
21192;SDS011;10754;51.106;7.164;2022-12-22T05:25:12;1.70;;;1.40;;
21192;SDS011;10754;51.106;7.164;2022-12-22T05:27:40;2.33;;;0.90;;
21192;SDS011;10754;51.106;7.164;2022-12-22T05:30:09;3.37;;;2.37;;
21192;SDS011;10754;51.106;7.164;2022-12-22T05:32:35;3.00;;;1.60;;
21192;SDS011;10754;51.106;7.164;2022-12-22T05:35:01;3.17;;;1.53;;
21192;SDS011;10754;51.106;7.164;2022-12-22T05:37:28;2.50;;;1.40;;
21192;SDS011;10754;51.106;7.164;2022-12-22T05:39:53;9.97;;;1.70;;
21192;SDS011;10754;51.106;7.164;2022-12-22T05:42:19;4.10;;;0.93;;
21192;SDS011;10754;51.106;7.164;2022-12-22T05:45:10;5.37;;;1.00;;
21192;SDS011;10754;51.106;7.164;2022-12-22T05:47:38;9.27;;;1.37;;
21192;SDS011;10754;51.106;7.164;2022-12-22T05:50:05;3.07;;;0.90;;
21192;SDS011;10754;51.106;7.164;2022-12-22T05:52:31;3.43;;;0.80;;
21192;SDS011;10754;51.106;7.164;2022-12-22T05:54:57;5.70;;;0.90;;
21192;SDS011;10754;51.106;7.164;2022-12-22T05:57:22;8.33;;;1.87;;
21192;SDS011;10754;51.106;7.164;2022-12-22T05:59:48;2.70;;;1.03;;
21192;SDS011;10754;51.106;7.164;2022-12-22T06:02:13;2.63;;;1.13;;
21192;SDS011;10754;51.106;7.164;2022-12-22T06:04:39;2.67;;;1.20;;
21192;SDS011;10754;51.106;7.164;2022-12-22T06:07:04;3.37;;;1.30;;
21192;SDS011;10754;51.106;7.164;2022-12-22T06:09:30;2.00;;;0.90;;
21192;SDS011;10754;51.106;7.164;2022-12-22T06:11:55;2.63;;;0.90;;
21192;SDS011;10754;51.106;7.164;2022-12-22T06:14:21;2.77;;;1.00;;
21192;SDS011;10754;51.106;7.164;2022-12-22T06:16:46;8.53;;;1.60;;
21192;SDS011;10754;51.106;7.164;2022-12-22T06:19:12;10.13;;;1.90;;
21192;SDS011;10754;51.106;7.164;2022-12-22T06:21:37;14.93;;;2.53;;
21192;SDS011;10754;51.106;7.164;2022-12-22T06:24:03;6.63;;;1.53;;
21192;SDS011;10754;51.106;7.164;2022-12-22T06:26:29;3.53;;;1.30;;
21192;SDS011;10754;51.106;7.164;2022-12-22T06:28:55;2.90;;;0.93;;
21192;SDS011;10754;51.106;7.164;2022-12-22T06:31:22;3.97;;;1.63;;
21192;SDS011;10754;51.106;7.164;2022-12-22T06:33:48;14.63;;;2.70;;
21192;SDS011;10754;51.106;7.164;2022-12-22T06:36:13;1.80;;;1.03;;
21192;SDS011;10754;51.106;7.164;2022-12-22T06:38:39;4.40;;;1.23;;
21192;SDS011;10754;51.106;7.164;2022-12-22T06:41:04;2.43;;;1.43;;
21192;SDS011;10754;51.106;7.164;2022-12-22T06:43:30;1.60;;;1.30;;
21192;SDS011;10754;51.106;7.164;2022-12-22T06:45:55;3.33;;;1.13;;
21192;SDS011;10754;51.106;7.164;2022-12-22T06:48:21;5.50;;;1.60;;
21192;SDS011;10754;51.106;7.164;2022-12-22T06:50:47;6.67;;;1.53;;
21192;SDS011;10754;51.106;7.164;2022-12-22T06:53:13;9.00;;;1.70;;
21192;SDS011;10754;51.106;7.164;2022-12-22T06:55:38;5.13;;;1.00;;
21192;SDS011;10754;51.106;7.164;2022-12-22T06:58:04;1.30;;;0.73;;
21192;SDS011;10754;51.106;7.164;2022-12-22T07:00:30;1.43;;;0.87;;
21192;SDS011;10754;51.106;7.164;2022-12-22T07:02:55;5.50;;;1.10;;
21192;SDS011;10754;51.106;7.164;2022-12-22T07:05:21;2.90;;;1.23;;
21192;SDS011;10754;51.106;7.164;2022-12-22T07:07:47;1.37;;;1.00;;
21192;SDS011;10754;51.106;7.164;2022-12-22T07:10:13;1.97;;;1.10;;
21192;SDS011;10754;51.106;7.164;2022-12-22T07:12:39;2.90;;;1.20;;
21192;SDS011;10754;51.106;7.164;2022-12-22T07:15:05;4.00;;;2.00;;
21192;SDS011;10754;51.106;7.164;2022-12-22T07:17:31;2.30;;;1.40;;
21192;SDS011;10754;51.106;7.164;2022-12-22T07:19:56;1.13;;;0.90;;
21192;SDS011;10754;51.106;7.164;2022-12-22T07:22:22;2.30;;;1.77;;
21192;SDS011;10754;51.106;7.164;2022-12-22T07:24:47;3.63;;;2.20;;
21192;SDS011;10754;51.106;7.164;2022-12-22T07:27:14;2.10;;;1.80;;
21192;SDS011;10754;51.106;7.164;2022-12-22T07:29:40;1.40;;;1.30;;
21192;SDS011;10754;51.106;7.164;2022-12-22T07:32:05;1.53;;;1.40;;
21192;SDS011;10754;51.106;7.164;2022-12-22T07:34:31;1.27;;;1.17;;
21192;SDS011;10754;51.106;7.164;2022-12-22T07:36:57;1.50;;;1.40;;
21192;SDS011;10754;51.106;7.164;2022-12-22T07:39:22;1.87;;;1.30;;
21192;SDS011;10754;51.106;7.164;2022-12-22T07:41:48;1.37;;;1.27;;
21192;SDS011;10754;51.106;7.164;2022-12-22T07:44:32;1.40;;;1.30;;
21192;SDS011;10754;51.106;7.164;2022-12-22T07:46:57;1.60;;;1.10;;
21192;SDS011;10754;51.106;7.164;2022-12-22T07:49:23;1.70;;;1.60;;
21192;SDS011;10754;51.106;7.164;2022-12-22T07:52:07;2.10;;;1.87;;
21192;SDS011;10754;51.106;7.164;2022-12-22T07:54:32;2.53;;;1.83;;
21192;SDS011;10754;51.106;7.164;2022-12-22T07:56:59;2.60;;;2.40;;
21192;SDS011;10754;51.106;7.164;2022-12-22T07:59:24;1.97;;;1.77;;
21192;SDS011;10754;51.106;7.164;2022-12-22T08:01:50;2.23;;;1.67;;
21192;SDS011;10754;51.106;7.164;2022-12-22T08:04:15;2.03;;;1.93;;
21192;SDS011;10754;51.106;7.164;2022-12-22T08:06:41;2.20;;;2.10;;
21192;SDS011;10754;51.106;7.164;2022-12-22T08:09:07;2.60;;;2.20;;
21192;SDS011;10754;51.106;7.164;2022-12-22T08:11:36;2.83;;;2.63;;
21192;SDS011;10754;51.106;7.164;2022-12-22T08:14:02;2.90;;;2.40;;
21192;SDS011;10754;51.106;7.164;2022-12-22T08:16:27;2.70;;;2.50;;
21192;SDS011;10754;51.106;7.164;2022-12-22T08:18:53;3.33;;;3.10;;
21192;SDS011;10754;51.106;7.164;2022-12-22T08:21:19;4.43;;;4.10;;
21192;SDS011;10754;51.106;7.164;2022-12-22T08:23:44;3.97;;;3.67;;
21192;SDS011;10754;51.106;7.164;2022-12-22T08:29:00;4.40;;;4.00;;
21192;SDS011;10754;51.106;7.164;2022-12-22T08:31:31;4.13;;;3.73;;
21192;SDS011;10754;51.106;7.164;2022-12-22T08:33:57;4.23;;;3.90;;
21192;SDS011;10754;51.106;7.164;2022-12-22T08:36:28;4.23;;;3.83;;
21192;SDS011;10754;51.106;7.164;2022-12-22T08:38:55;4.32;;;3.97;;
21192;SDS011;10754;51.106;7.164;2022-12-22T08:41:22;4.27;;;3.87;;
21192;SDS011;10754;51.106;7.164;2022-12-22T08:44:07;4.10;;;3.70;;
21192;SDS011;10754;51.106;7.164;2022-12-22T08:46:33;5.10;;;4.60;;
21192;SDS011;10754;51.106;7.164;2022-12-22T08:48:59;5.80;;;5.25;;
21192;SDS011;10754;51.106;7.164;2022-12-22T08:51:24;6.10;;;5.60;;
21192;SDS011;10754;51.106;7.164;2022-12-22T08:53:50;5.83;;;5.33;;
21192;SDS011;10754;51.106;7.164;2022-12-22T08:56:15;6.00;;;5.43;;
21192;SDS011;10754;51.106;7.164;2022-12-22T08:58:41;6.47;;;5.87;;
21192;SDS011;10754;51.106;7.164;2022-12-22T09:01:06;5.20;;;4.77;;
21192;SDS011;10754;51.106;7.164;2022-12-22T09:03:31;5.95;;;5.32;;
21192;SDS011;10754;51.106;7.164;2022-12-22T09:06:00;5.55;;;5.07;;
21192;SDS011;10754;51.106;7.164;2022-12-22T09:08:26;6.33;;;5.67;;
21192;SDS011;10754;51.106;7.164;2022-12-22T09:10:52;5.73;;;5.23;;
21192;SDS011;10754;51.106;7.164;2022-12-22T09:13:17;5.00;;;4.60;;
21192;SDS011;10754;51.106;7.164;2022-12-22T09:15:43;6.47;;;5.87;;
21192;SDS011;10754;51.106;7.164;2022-12-22T09:18:08;6.15;;;5.65;;
21192;SDS011;10754;51.106;7.164;2022-12-22T09:20:34;6.07;;;5.57;;
21192;SDS011;10754;51.106;7.164;2022-12-22T09:22:59;6.25;;;5.75;;
21192;SDS011;10754;51.106;7.164;2022-12-22T09:25:25;6.67;;;6.07;;
21192;SDS011;10754;51.106;7.164;2022-12-22T09:27:51;6.17;;;5.63;;
21192;SDS011;10754;51.106;7.164;2022-12-22T09:30:16;7.17;;;6.47;;
21192;SDS011;10754;51.106;7.164;2022-12-22T09:32:42;6.30;;;5.80;;
21192;SDS011;10754;51.106;7.164;2022-12-22T09:35:07;6.87;;;6.17;;
21192;SDS011;10754;51.106;7.164;2022-12-22T09:37:33;8.30;;;7.45;;
21192;SDS011;10754;51.106;7.164;2022-12-22T09:39:58;8.35;;;7.63;;
21192;SDS011;10754;51.106;7.164;2022-12-22T09:42:24;8.07;;;7.27;;
21192;SDS011;10754;51.106;7.164;2022-12-22T09:44:50;8.50;;;7.70;;
21192;SDS011;10754;51.106;7.164;2022-12-22T09:49:47;9.10;;;8.20;;
21192;SDS011;10754;51.106;7.164;2022-12-22T09:52:26;9.67;;;8.77;;
21192;SDS011;10754;51.106;7.164;2022-12-22T09:55:14;10.17;;;9.17;;
21192;SDS011;10754;51.106;7.164;2022-12-22T09:57:53;10.27;;;9.27;;
21192;SDS011;10754;51.106;7.164;2022-12-22T10:00:20;10.30;;;9.20;;
21192;SDS011;10754;51.106;7.164;2022-12-22T10:05:37;10.27;;;9.27;;
21192;SDS011;10754;51.106;7.164;2022-12-22T10:08:08;10.00;;;9.10;;
21192;SDS011;10754;51.106;7.164;2022-12-22T10:10:36;8.70;;;7.90;;
21192;SDS011;10754;51.106;7.164;2022-12-22T10:13:02;9.07;;;8.17;;
21192;SDS011;10754;51.106;7.164;2022-12-22T10:15:36;9.10;;;8.23;;
21192;SDS011;10754;51.106;7.164;2022-12-22T10:18:14;9.87;;;8.97;;
21192;SDS011;10754;51.106;7.164;2022-12-22T10:20:42;9.97;;;9.10;;
21192;SDS011;10754;51.106;7.164;2022-12-22T10:23:17;10.63;;;9.60;;
21192;SDS011;10754;51.106;7.164;2022-12-22T10:28:42;8.23;;;7.53;;
21192;SDS011;10754;51.106;7.164;2022-12-22T10:33:45;7.83;;;7.13;;
21192;SDS011;10754;51.106;7.164;2022-12-22T10:36:15;8.07;;;7.27;;
21192;SDS011;10754;51.106;7.164;2022-12-22T10:38:56;8.60;;;7.63;;
21192;SDS011;10754;51.106;7.164;2022-12-22T10:41:28;7.37;;;6.67;;
21192;SDS011;10754;51.106;7.164;2022-12-22T10:43:58;8.43;;;7.63;;
21192;SDS011;10754;51.106;7.164;2022-12-22T10:46:35;8.27;;;7.57;;
21192;SDS011;10754;51.106;7.164;2022-12-22T10:49:23;7.43;;;6.83;;
21192;SDS011;10754;51.106;7.164;2022-12-22T10:52:16;7.53;;;6.90;;
21192;SDS011;10754;51.106;7.164;2022-12-22T10:54:46;7.77;;;7.07;;
21192;SDS011;10754;51.106;7.164;2022-12-22T10:59:47;7.83;;;7.13;;
21192;SDS011;10754;51.106;7.164;2022-12-22T11:02:27;8.10;;;7.40;;
21192;SDS011;10754;51.106;7.164;2022-12-22T11:05:02;8.33;;;7.53;;
21192;SDS011;10754;51.106;7.164;2022-12-22T11:07:34;9.57;;;7.80;;
21192;SDS011;10754;51.106;7.164;2022-12-22T11:10:25;8.95;;;8.15;;
21192;SDS011;10754;51.106;7.164;2022-12-22T11:16:00;9.10;;;8.20;;
21192;SDS011;10754;51.106;7.164;2022-12-22T11:35:01;10.40;;;9.30;;
21192;SDS011;10754;51.106;7.164;2022-12-22T11:37:39;10.37;;;9.37;;
21192;SDS011;10754;51.106;7.164;2022-12-22T11:40:45;11.27;;;10.17;;
21192;SDS011;10754;51.106;7.164;2022-12-22T11:43:25;10.93;;;9.83;;
21192;SDS011;10754;51.106;7.164;2022-12-22T11:46:33;11.73;;;10.30;;
21192;SDS011;10754;51.106;7.164;2022-12-22T11:57:00;10.90;;;10.00;;
21192;SDS011;10754;51.106;7.164;2022-12-22T11:59:44;10.85;;;9.85;;
21192;SDS011;10754;51.106;7.164;2022-12-22T12:10:41;10.35;;;9.45;;
21192;SDS011;10754;51.106;7.164;2022-12-22T12:13:19;9.80;;;8.90;;
21192;SDS011;10754;51.106;7.164;2022-12-22T12:16:15;9.07;;;8.20;;
21192;SDS011;10754;51.106;7.164;2022-12-22T12:19:14;8.23;;;7.43;;
21192;SDS011;10754;51.106;7.164;2022-12-22T12:24:27;8.57;;;7.78;;
21192;SDS011;10754;51.106;7.164;2022-12-22T12:29:34;8.13;;;7.32;;
21192;SDS011;10754;51.106;7.164;2022-12-22T12:34:34;8.05;;;7.35;;
21192;SDS011;10754;51.106;7.164;2022-12-22T12:40:02;7.68;;;6.97;;
21192;SDS011;10754;51.106;7.164;2022-12-22T12:42:43;7.78;;;7.07;;
21192;SDS011;10754;51.106;7.164;2022-12-22T12:50:46;7.60;;;6.45;;
21192;SDS011;10754;51.106;7.164;2022-12-22T12:53:13;9.45;;;7.30;;
21192;SDS011;10754;51.106;7.164;2022-12-22T12:58:08;6.45;;;5.80;;
21192;SDS011;10754;51.106;7.164;2022-12-22T13:03:02;5.88;;;5.28;;
21192;SDS011;10754;51.106;7.164;2022-12-22T13:05:52;6.68;;;6.07;;
21192;SDS011;10754;51.106;7.164;2022-12-22T13:08:20;7.60;;;6.88;;
21192;SDS011;10754;51.106;7.164;2022-12-22T13:16:19;6.75;;;5.70;;
21192;SDS011;10754;51.106;7.164;2022-12-22T13:18:45;6.80;;;6.05;;
21192;SDS011;10754;51.106;7.164;2022-12-22T13:21:12;6.50;;;5.90;;
21192;SDS011;10754;51.106;7.164;2022-12-22T13:26:11;5.78;;;5.28;;
21192;SDS011;10754;51.106;7.164;2022-12-22T13:28:40;5.40;;;4.45;;
21192;SDS011;10754;51.106;7.164;2022-12-22T13:33:44;5.43;;;4.93;;
21192;SDS011;10754;51.106;7.164;2022-12-22T13:36:17;6.25;;;4.75;;
21192;SDS011;10754;51.106;7.164;2022-12-22T13:38:45;5.78;;;4.22;;
21192;SDS011;10754;51.106;7.164;2022-12-22T13:41:15;5.97;;;4.88;;
21192;SDS011;10754;51.106;7.164;2022-12-22T13:43:42;5.78;;;4.82;;
21192;SDS011;10754;51.106;7.164;2022-12-22T13:46:11;5.45;;;3.63;;
21192;SDS011;10754;51.106;7.164;2022-12-22T13:48:39;5.13;;;4.60;;
21192;SDS011;10754;51.106;7.164;2022-12-22T13:51:08;5.30;;;4.53;;
21192;SDS011;10754;51.106;7.164;2022-12-22T13:53:46;5.05;;;4.55;;
21192;SDS011;10754;51.106;7.164;2022-12-22T13:56:16;5.00;;;4.10;;
21192;SDS011;10754;51.106;7.164;2022-12-22T13:58:45;3.88;;;3.55;;
21192;SDS011;10754;51.106;7.164;2022-12-22T14:01:16;5.07;;;3.92;;
21192;SDS011;10754;51.106;7.164;2022-12-22T14:06:28;4.35;;;3.58;;
21192;SDS011;10754;51.106;7.164;2022-12-22T14:09:19;4.65;;;3.53;;
21192;SDS011;10754;51.106;7.164;2022-12-22T14:16:55;3.92;;;3.58;;
21192;SDS011;10754;51.106;7.164;2022-12-22T14:19:24;3.97;;;3.67;;
21192;SDS011;10754;51.106;7.164;2022-12-22T14:22:06;4.30;;;3.43;;
21192;SDS011;10754;51.106;7.164;2022-12-22T14:24:47;4.45;;;3.50;;
21192;SDS011;10754;51.106;7.164;2022-12-22T14:27:32;4.72;;;3.92;;
21192;SDS011;10754;51.106;7.164;2022-12-22T14:30:03;4.78;;;3.92;;
21192;SDS011;10754;51.106;7.164;2022-12-22T14:32:39;6.25;;;3.95;;
21192;SDS011;10754;51.106;7.164;2022-12-22T14:37:44;5.37;;;3.70;;
21192;SDS011;10754;51.106;7.164;2022-12-22T14:40:26;4.32;;;3.92;;
21192;SDS011;10754;51.106;7.164;2022-12-22T14:42:54;4.78;;;4.20;;
21192;SDS011;10754;51.106;7.164;2022-12-22T14:45:20;5.30;;;4.47;;
21192;SDS011;10754;51.106;7.164;2022-12-22T14:47:46;5.17;;;4.17;;
21192;SDS011;10754;51.106;7.164;2022-12-22T14:50:16;5.60;;;4.07;;
21192;SDS011;10754;51.106;7.164;2022-12-22T14:52:44;4.60;;;3.63;;
21192;SDS011;10754;51.106;7.164;2022-12-22T14:57:51;4.40;;;4.00;;
21192;SDS011;10754;51.106;7.164;2022-12-22T15:02:48;4.00;;;3.50;;
21192;SDS011;10754;51.106;7.164;2022-12-22T15:05:30;4.47;;;3.63;;
21192;SDS011;10754;51.106;7.164;2022-12-22T15:08:01;4.20;;;3.80;;
21192;SDS011;10754;51.106;7.164;2022-12-22T15:10:32;4.13;;;3.73;;
21192;SDS011;10754;51.106;7.164;2022-12-22T15:13:06;4.63;;;3.87;;
21192;SDS011;10754;51.106;7.164;2022-12-22T15:15:37;5.23;;;4.63;;
21192;SDS011;10754;51.106;7.164;2022-12-22T15:18:02;3.88;;;3.53;;
21192;SDS011;10754;51.106;7.164;2022-12-22T15:20:28;4.10;;;3.33;;
21192;SDS011;10754;51.106;7.164;2022-12-22T15:22:53;6.63;;;3.83;;
21192;SDS011;10754;51.106;7.164;2022-12-22T15:25:20;4.40;;;3.43;;
21192;SDS011;10754;51.106;7.164;2022-12-22T15:27:47;3.97;;;3.60;;
21192;SDS011;10754;51.106;7.164;2022-12-22T15:30:14;3.93;;;3.50;;
21192;SDS011;10754;51.106;7.164;2022-12-22T15:32:41;5.57;;;4.20;;
21192;SDS011;10754;51.106;7.164;2022-12-22T15:35:14;5.13;;;4.07;;
21192;SDS011;10754;51.106;7.164;2022-12-22T15:37:59;6.80;;;3.77;;
21192;SDS011;10754;51.106;7.164;2022-12-22T15:40:25;4.90;;;3.67;;
21192;SDS011;10754;51.106;7.164;2022-12-22T15:42:52;4.63;;;3.57;;
21192;SDS011;10754;51.106;7.164;2022-12-22T15:45:18;5.33;;;3.30;;
21192;SDS011;10754;51.106;7.164;2022-12-22T15:47:46;4.93;;;3.70;;
21192;SDS011;10754;51.106;7.164;2022-12-22T15:50:26;4.10;;;3.70;;
21192;SDS011;10754;51.106;7.164;2022-12-22T15:52:55;4.63;;;4.13;;
21192;SDS011;10754;51.106;7.164;2022-12-22T15:55:23;4.87;;;4.23;;
21192;SDS011;10754;51.106;7.164;2022-12-22T15:57:50;5.37;;;4.57;;
21192;SDS011;10754;51.106;7.164;2022-12-22T16:00:17;5.00;;;4.23;;
21192;SDS011;10754;51.106;7.164;2022-12-22T16:02:44;5.70;;;4.03;;
21192;SDS011;10754;51.106;7.164;2022-12-22T16:05:09;5.47;;;4.97;;
21192;SDS011;10754;51.106;7.164;2022-12-22T16:07:35;7.13;;;6.43;;
21192;SDS011;10754;51.106;7.164;2022-12-22T16:10:02;6.10;;;5.40;;
21192;SDS011;10754;51.106;7.164;2022-12-22T16:12:29;7.33;;;5.70;;
21192;SDS011;10754;51.106;7.164;2022-12-22T16:14:56;5.17;;;4.50;;
21192;SDS011;10754;51.106;7.164;2022-12-22T16:17:24;5.83;;;5.07;;
21192;SDS011;10754;51.106;7.164;2022-12-22T16:19:51;5.83;;;4.80;;
21192;SDS011;10754;51.106;7.164;2022-12-22T16:22:18;5.43;;;4.67;;
21192;SDS011;10754;51.106;7.164;2022-12-22T16:24:46;5.73;;;5.23;;
21192;SDS011;10754;51.106;7.164;2022-12-22T16:27:13;5.30;;;4.80;;
21192;SDS011;10754;51.106;7.164;2022-12-22T16:29:42;5.77;;;5.23;;
21192;SDS011;10754;51.106;7.164;2022-12-22T16:34:50;7.83;;;6.63;;
21192;SDS011;10754;51.106;7.164;2022-12-22T16:37:16;6.37;;;5.20;;
21192;SDS011;10754;51.106;7.164;2022-12-22T16:39:41;6.60;;;6.00;;
21192;SDS011;10754;51.106;7.164;2022-12-22T16:42:13;5.53;;;5.03;;
21192;SDS011;10754;51.106;7.164;2022-12-22T16:44:42;5.97;;;5.37;;
21192;SDS011;10754;51.106;7.164;2022-12-22T16:47:21;13.20;;;5.77;;
21192;SDS011;10754;51.106;7.164;2022-12-22T16:49:49;6.40;;;4.77;;
21192;SDS011;10754;51.106;7.164;2022-12-22T16:52:16;4.70;;;4.30;;
21192;SDS011;10754;51.106;7.164;2022-12-22T16:54:44;6.10;;;4.77;;
21192;SDS011;10754;51.106;7.164;2022-12-22T16:57:10;5.40;;;4.77;;
21192;SDS011;10754;51.106;7.164;2022-12-22T16:59:35;5.03;;;4.50;;
21192;SDS011;10754;51.106;7.164;2022-12-22T17:02:01;4.77;;;4.10;;
21192;SDS011;10754;51.106;7.164;2022-12-22T17:04:28;4.80;;;4.17;;
21192;SDS011;10754;51.106;7.164;2022-12-22T17:06:55;5.83;;;3.67;;
21192;SDS011;10754;51.106;7.164;2022-12-22T17:09:24;4.13;;;3.73;;
21192;SDS011;10754;51.106;7.164;2022-12-22T17:11:58;4.77;;;3.53;;
21192;SDS011;10754;51.106;7.164;2022-12-22T17:14:26;3.40;;;3.10;;
21192;SDS011;10754;51.106;7.164;2022-12-22T17:16:55;4.07;;;3.67;;
21192;SDS011;10754;51.106;7.164;2022-12-22T17:19:21;3.80;;;3.40;;
21192;SDS011;10754;51.106;7.164;2022-12-22T17:21:46;4.77;;;3.43;;